Time;durP1;ratioP1;P1;durP2;ratioP2;P2;SDS_P1;SDS_P2;PMS_P1;PMS_P2;Temp;Humidity;BMP_temperature;BMP_pressure;BME280_temperature;BME280_humidity;BME280_pressure;Samples;Min_cycle;Max_cycle;Signal;HPM_P1;HPM_P2
2023/10/19 00:00:57;;;;;;;965.40;915.10;;;;;;;18.65;76.99;97051.31;5080158;27;103382;-70
2023/10/19 00:03:26;;;;;;;978.85;927.63;;;;;;;18.72;75.95;97038.81;5078042;27;103261;-71
2023/10/19 00:05:56;;;;;;;978.65;927.70;;;;;;;18.88;75.17;97038.44;5075439;27;105803;-61
2023/10/19 00:08:24;;;;;;;961.45;912.55;;;;;;;18.52;77.26;97036.06;5056141;27;102847;-61
2023/10/19 00:11:02;;;;;;;950.83;900.65;;;;;;;18.68;76.82;97037.53;5071859;27;103412;-61
2023/10/19 00:13:30;;;;;;;990.38;938.00;;;;;;;18.96;74.65;97040.91;5075217;27;103178;-70
2023/10/19 00:15:58;;;;;;;973.75;922.28;;;;;;;18.86;74.60;97036.97;5079872;27;102720;-61
2023/10/19 00:18:27;;;;;;;1013.60;958.50;;;;;;;19.39;72.80;97038.72;5077560;27;104494;-61
2023/10/19 00:20:59;;;;;;;965.63;914.70;;;;;;;19.00;75.21;97034.09;5076619;27;103960;-61
2023/10/19 00:23:31;;;;;;;968.25;917.65;;;;;;;18.37;76.97;97029.16;5076513;27;104422;-61
2023/10/19 00:25:59;;;;;;;945.92;897.55;;;;;;;18.96;75.68;97034.72;5077180;27;102727;-61
2023/10/19 00:28:28;;;;;;;990.10;937.50;;;;;;;19.41;73.03;97033.16;5077569;27;102713;-60
2023/10/19 00:31:07;;;;;;;947.37;897.33;;;;;;;18.53;77.31;97034.19;5055869;27;104240;-70
2023/10/19 00:33:38;;;;;;;960.60;909.93;;;;;;;19.28;74.14;97033.13;5059854;27;103357;-61
2023/10/19 00:36:08;;;;;;;979.15;927.33;;;;;;;19.55;72.83;97040.16;5060822;27;102798;-61
2023/10/19 00:38:41;;;;;;;1014.72;957.28;;;;;;;19.86;69.84;97037.66;5074960;27;102849;-61
2023/10/19 00:41:19;;;;;;;997.20;942.10;;;;;;;19.78;71.11;97032.53;5057084;27;104213;-71
2023/10/19 00:43:49;;;;;;;985.70;933.58;;;;;;;19.76;71.14;97031.09;5074946;27;104171;-70
2023/10/19 00:46:21;;;;;;;976.70;923.90;;;;;;;19.45;71.12;97023.69;5062254;27;102702;-71
2023/10/19 00:48:57;;;;;;;968.00;918.72;;;;;;;19.30;75.28;97017.69;5056268;27;103851;-71
2023/10/19 00:51:40;;;;;;;977.60;926.50;;;;;;;19.71;72.76;97012.94;5077353;27;104399;-62
2023/10/19 00:54:15;;;;;;;981.92;929.72;;;;;;;19.06;73.82;96997.69;5077586;27;103309;-61
2023/10/19 00:56:48;;;;;;;904.33;859.25;;;;;;;18.41;80.61;96990.34;5047814;27;102713;-61
2023/10/19 00:59:22;;;;;;;904.15;859.90;;;;;;;18.91;78.93;96987.19;5058313;27;102779;-61
2023/10/19 01:01:53;;;;;;;957.60;907.67;;;;;;;19.14;77.22;96980.63;5055843;27;104140;-61
2023/10/19 01:04:25;;;;;;;964.13;913.97;;;;;;;19.50;76.11;96968.47;5071328;27;103540;-61
2023/10/19 01:07:05;;;;;;;982.37;931.03;;;;;;;19.02;77.98;96975.88;5056911;27;103096;-61
2023/10/19 01:09:36;;;;;;;902.20;857.03;;;;;;;19.11;77.92;96974.63;5077227;27;102928;-62
2023/10/19 01:12:21;;;;;;;884.97;841.45;;;;;;;17.66;84.87;96983.16;5056371;27;104110;-61
2023/10/19 01:15:03;;;;;;;895.85;851.83;;;;;;;19.06;77.05;96993.16;5054012;27;103232;-61
2023/10/19 01:17:33;;;;;;;943.33;894.33;;;;;;;19.32;78.85;96981.63;5051976;27;102718;-61
2023/10/19 01:20:12;;;;;;;998.55;943.88;;;;;;;19.53;76.90;96972.59;5049848;27;102810;-61
2023/10/19 01:22:50;;;;;;;963.35;912.30;;;;;;;19.39;77.72;96969.13;5071221;27;104187;-61
2023/10/19 01:25:19;;;;;;;1011.45;955.75;;;;;;;19.52;76.33;96955.69;5058989;27;103310;-61
2023/10/19 01:27:49;;;;;;;972.47;920.70;;;;;;;19.20;77.55;96961.06;5073315;27;102710;-62
2023/10/19 01:30:18;;;;;;;928.63;881.17;;;;;;;19.29;78.25;96954.44;5053677;27;104134;-61
2023/10/19 01:32:46;;;;;;;955.13;905.05;;;;;;;19.20;77.84;96945.00;5053789;27;104349;-61
2023/10/19 01:35:15;;;;;;;923.70;876.42;;;;;;;19.22;79.26;96942.94;5075227;27;103959;-61
2023/10/19 01:37:43;;;;;;;953.05;903.33;;;;;;;19.10;79.00;96927.50;5058446;27;104236;-62
2023/10/19 01:40:15;;;;;;;864.53;820.50;;;;;;;18.99;79.98;96933.47;5076232;27;102697;-62
2023/10/19 01:42:44;;;;;;;347.83;334.55;;;;;;;19.24;78.87;96924.81;5073013;27;103786;-61
2023/10/19 01:45:11;;;;;;;346.02;332.73;;;;;;;19.29;79.01;96930.34;5075242;27;103195;-62
2023/10/19 01:47:41;;;;;;;313.88;301.88;;;;;;;19.00;80.57;96929.75;5060610;27;104905;-61
2023/10/19 01:50:19;;;;;;;304.07;292.10;;;;;;;19.01;81.99;96917.19;5076931;27;103978;-72
2023/10/19 01:52:48;;;;;;;336.80;323.47;;;;;;;19.44;79.88;96910.41;5054841;27;104577;-72
2023/10/19 01:55:20;;;;;;;357.98;344.25;;;;;;;19.65;79.88;96906.63;5050212;27;103218;-72
2023/10/19 01:57:48;;;;;;;400.48;384.23;;;;;;;19.76;78.44;96908.66;5056163;27;103024;-61
2023/10/19 02:00:22;;;;;;;450.40;432.05;;;;;;;20.24;76.72;96903.72;5055114;27;102743;-62
2023/10/19 02:02:52;;;;;;;341.80;327.97;;;;;;;18.90;83.11;96913.28;5057502;27;104241;-72
2023/10/19 02:05:22;;;;;;;307.88;295.40;;;;;;;18.50;86.68;96917.78;5059358;27;103258;-62
2023/10/19 02:07:50;;;;;;;283.10;271.58;;;;;;;18.71;85.92;96906.09;5078331;27;102608;-72
2023/10/19 02:10:19;;;;;;;291.30;278.88;;;;;;;18.03;88.71;96903.63;5062478;27;102796;-71
2023/10/19 02:12:55;;;;;;;249.00;238.15;;;;;;;17.37;93.75;96908.63;5062239;27;104243;-72
2023/10/19 02:15:22;;;;;;;220.48;210.55;;;;;;;16.99;96.79;96905.50;5059931;27;103211;-72
2023/10/19 02:17:50;;;;;;;264.15;253.25;;;;;;;18.16;92.69;96898.34;5058775;27;102666;-71
2023/10/19 02:20:24;;;;;;;257.17;245.93;;;;;;;17.65;94.13;96906.78;5076481;27;104793;-72
2023/10/19 02:23:08;;;;;;;242.43;232.02;;;;;;;17.65;95.37;96905.94;5077711;27;104032;-71
2023/10/19 02:25:36;;;;;;;218.37;208.97;;;;;;;17.26;96.56;96898.50;5062577;27;103284;-71
2023/10/19 02:28:06;;;;;;;215.40;205.90;;;;;;;17.78;95.64;96895.31;5082678;27;102767;-71
2023/10/19 02:30:34;;;;;;;307.23;294.25;;;;;;;17.98;92.10;96896.22;5055387;27;103882;-71
2023/10/19 02:33:03;;;;;;;250.77;240.38;;;;;;;18.20;90.42;96888.88;5076285;27;103411;-71
2023/10/19 02:35:30;;;;;;;262.88;252.38;;;;;;;18.60;88.20;96889.81;5057550;27;104253;-71
2023/10/19 02:37:59;;;;;;;210.55;202.05;;;;;;;18.91;87.88;96884.69;5056031;27;102897;-71
2023/10/19 02:40:31;;;;;;;177.23;170.40;;;;;;;19.73;84.56;96871.59;5072907;27;104168;-71
2023/10/19 02:43:03;;;;;;;181.57;174.23;;;;;;;19.49;83.45;96869.59;5061816;27;104229;-71
2023/10/19 02:45:31;;;;;;;193.82;186.50;;;;;;;20.19;81.09;96877.56;5060193;27;103292;-71
2023/10/19 02:47:58;;;;;;;189.05;181.27;;;;;;;19.26;83.36;96874.56;5056813;27;102779;-71
2023/10/19 02:50:27;;;;;;;185.57;178.52;;;;;;;19.97;81.16;96868.19;5076221;27;104066;-71
2023/10/19 02:52:54;;;;;;;208.07;200.13;;;;;;;20.31;79.57;96863.50;5051413;27;103439;-71
2023/10/19 02:55:23;;;;;;;217.80;209.55;;;;;;;20.39;78.36;96871.28;5057326;27;103219;-71
2023/10/19 02:57:51;;;;;;;217.30;208.80;;;;;;;20.07;78.07;96868.53;5061061;27;102756;-71
2023/10/19 03:00:20;;;;;;;220.00;211.40;;;;;;;20.33;77.90;96858.72;5061500;27;104407;-71
2023/10/19 03:02:48;;;;;;;254.25;245.13;;;;;;;20.53;77.17;96856.75;5076214;27;103814;-71
2023/10/19 03:05:17;;;;;;;265.90;256.25;;;;;;;20.64;76.20;96859.56;5079912;27;104124;-71
2023/10/19 03:07:44;;;;;;;245.65;236.57;;;;;;;20.74;74.61;96859.06;5079241;27;102629;-71
2023/10/19 03:10:23;;;;;;;209.18;201.15;;;;;;;19.91;77.73;96858.31;5058291;27;102840;-70
2023/10/19 03:12:50;;;;;;;232.38;223.63;;;;;;;20.15;75.46;96860.25;5057893;27;104292;-71
2023/10/19 03:15:21;;;;;;;223.02;214.43;;;;;;;19.76;78.22;96856.97;5075357;27;103429;-71
2023/10/19 03:17:48;;;;;;;193.15;185.57;;;;;;;18.99;81.53;96858.56;5075040;27;103084;-70
2023/10/19 03:20:18;;;;;;;188.73;181.35;;;;;;;19.67;79.45;96841.13;5052466;27;104042;-71
2023/10/19 03:22:47;;;;;;;235.50;226.65;;;;;;;18.99;79.69;96839.00;5058424;27;104084;-71
2023/10/19 03:27:58;;;;;;;178.20;171.07;;;;;;;19.39;81.98;96837.94;5074221;27;102865;-71
2023/10/19 03:30:39;;;;;;;196.53;188.97;;;;;;;19.75;77.97;96831.19;5061592;27;104238;-68
2023/10/19 03:33:08;;;;;;;166.88;159.95;;;;;;;18.49;84.67;96825.25;5055640;27;104197;-69
2023/10/19 03:35:41;;;;;;;156.45;149.73;;;;;;;18.04;88.38;96825.97;5055803;27;104310;-69
2023/10/19 03:38:16;;;;;;;146.73;140.55;;;;;;;18.97;84.13;96833.88;5055233;27;102890;-69
2023/10/19 03:40:51;;;;;;;139.55;133.32;;;;;;;18.27;88.72;96836.28;5062050;27;102823;-70
2023/10/19 03:43:21;;;;;;;127.65;121.60;;;;;;;17.42;93.04;96847.47;5079071;27;104984;-69
2023/10/19 03:45:52;;;;;;;110.53;105.43;;;;;;;18.10;88.46;96840.38;5073051;27;103259;-68
2023/10/19 03:48:26;;;;;;;149.70;143.17;;;;;;;18.72;84.42;96832.84;5057515;27;104643;-68
2023/10/19 03:50:56;;;;;;;160.23;153.88;;;;;;;19.48;82.37;96825.13;5061133;27;102728;-69
2023/10/19 03:53:24;;;;;;;154.18;147.68;;;;;;;19.13;82.12;96821.06;5053707;27;104176;-69
2023/10/19 03:55:54;;;;;;;163.40;156.50;;;;;;;19.11;82.05;96823.97;5063068;27;104504;-68
2023/10/19 03:58:28;;;;;;;174.10;167.50;;;;;;;19.78;80.01;96820.06;5081052;27;102645;-68
2023/10/19 04:01:04;;;;;;;223.65;215.27;;;;;;;19.93;78.54;96818.72;5077358;27;104264;-69
2023/10/19 04:03:34;;;;;;;235.80;227.00;;;;;;;20.03;77.01;96816.41;5077249;27;104423;-70
2023/10/19 04:06:04;;;;;;;249.93;240.63;;;;;;;20.09;76.54;96812.06;5077228;27;103214;-69
2023/10/19 04:08:37;;;;;;;233.30;224.70;;;;;;;20.01;75.97;96805.09;5076547;27;102794;-69
2023/10/19 04:11:21;;;;;;;221.18;212.68;;;;;;;19.85;75.88;96800.22;5075793;27;103399;-69
2023/10/19 04:13:54;;;;;;;210.45;202.18;;;;;;;19.94;76.57;96788.22;5078508;27;104090;-69
2023/10/19 04:16:23;;;;;;;223.82;215.50;;;;;;;19.89;76.28;96796.09;5079266;27;103470;-67
2023/10/19 04:18:51;;;;;;;217.57;209.32;;;;;;;19.99;75.68;96788.38;5051603;27;104319;-67
2023/10/19 04:21:19;;;;;;;186.57;178.88;;;;;;;19.74;76.01;96792.88;5070253;27;103072;-66
2023/10/19 04:23:47;;;;;;;185.98;178.65;;;;;;;19.95;76.03;96784.50;5077168;27;104259;-67
2023/10/19 04:26:18;;;;;;;181.83;174.83;;;;;;;19.84;77.24;96787.88;5057006;27;104515;-66
2023/10/19 04:28:49;;;;;;;214.15;205.82;;;;;;;20.05;75.60;96779.50;5058393;27;104167;-67
2023/10/19 04:31:18;;;;;;;226.53;218.07;;;;;;;20.11;75.13;96777.81;5062105;27;103307;-66
2023/10/19 04:33:49;;;;;;;204.27;196.37;;;;;;;20.12;74.89;96780.28;5060787;27;104146;-66
2023/10/19 04:36:21;;;;;;;222.48;214.18;;;;;;;20.25;74.62;96776.72;5079499;27;103288;-67
2023/10/19 04:38:49;;;;;;;215.55;207.32;;;;;;;20.30;73.61;96776.03;5077599;27;103097;-67
2023/10/19 04:41:17;;;;;;;219.93;211.40;;;;;;;20.23;73.51;96766.19;5078543;27;102871;-67
2023/10/19 04:43:49;;;;;;;182.77;175.57;;;;;;;20.11;74.93;96762.56;5079252;27;103702;-67
2023/10/19 04:46:18;;;;;;;176.95;169.55;;;;;;;19.80;75.81;96765.22;5080399;27;103244;-67
2023/10/19 04:48:50;;;;;;;177.77;171.05;;;;;;;20.22;74.71;96764.53;5079444;27;102647;-67
2023/10/19 04:51:18;;;;;;;185.57;178.27;;;;;;;20.30;73.99;96765.31;5078060;27;103002;-67
2023/10/19 04:53:46;;;;;;;166.07;159.32;;;;;;;19.77;75.59;96760.28;5072249;27;103711;-67
2023/10/19 04:56:14;;;;;;;131.60;125.88;;;;;;;19.33;81.22;96773.66;5059813;27;103981;-67
2023/10/19 04:58:42;;;;;;;137.97;132.00;;;;;;;19.62;79.15;96765.91;5079296;27;103806;-67
2023/10/19 05:01:11;;;;;;;166.77;160.07;;;;;;;20.09;76.53;96763.81;5072088;27;103825;-67
2023/10/19 05:03:39;;;;;;;158.95;152.45;;;;;;;19.75;77.55;96759.69;5080191;27;103222;-67
2023/10/19 05:06:10;;;;;;;136.32;130.07;;;;;;;18.56;83.15;96755.72;5078120;27;103574;-67
2023/10/19 05:08:38;;;;;;;104.23;99.27;;;;;;;18.12;86.77;96756.31;5076852;27;102594;-66
2023/10/19 05:11:06;;;;;;;95.40;90.57;;;;;;;17.71;89.16;96767.09;5059064;27;104350;-67
2023/10/19 05:13:36;;;;;;;88.65;84.07;;;;;;;17.94;88.03;96767.56;5060201;27;103502;-66
2023/10/19 05:16:05;;;;;;;109.23;104.30;;;;;;;19.03;83.84;96750.06;5071088;27;103289;-66
2023/10/19 05:18:34;;;;;;;137.88;131.98;;;;;;;19.56;81.13;96760.63;5066926;27;102645;-66
2023/10/19 05:21:05;;;;;;;140.53;134.80;;;;;;;19.64;79.98;96760.38;5057301;27;103035;-66
2023/10/19 05:23:37;;;;;;;139.80;134.00;;;;;;;19.72;78.37;96760.13;5074052;27;103857;-66
2023/10/19 05:26:06;;;;;;;135.43;129.65;;;;;;;19.34;79.71;96764.59;5076691;27;104351;-66
2023/10/19 05:28:34;;;;;;;126.22;120.22;;;;;;;18.37;84.98;96773.38;5070797;27;102643;-66
2023/10/19 05:31:04;;;;;;;125.53;119.97;;;;;;;19.10;82.30;96766.94;5070171;27;102725;-66
2023/10/19 05:33:32;;;;;;;127.03;121.63;;;;;;;19.34;80.82;96769.94;5058154;27;104724;-66
2023/10/19 05:36:01;;;;;;;139.55;133.63;;;;;;;19.72;78.47;96773.50;5069776;27;103205;-66
2023/10/19 05:38:31;;;;;;;136.95;130.73;;;;;;;19.41;79.97;96770.75;5054615;27;103180;-66
2023/10/19 05:41:01;;;;;;;131.80;125.35;;;;;;;18.32;84.36;96775.03;5078917;27;102825;-67
2023/10/19 05:43:30;;;;;;;134.57;128.18;;;;;;;18.74;82.31;96777.31;5074128;27;103455;-66
2023/10/19 05:45:58;;;;;;;115.55;109.90;;;;;;;18.73;83.13;96778.31;5074308;27;103216;-66
2023/10/19 05:48:26;;;;;;;116.30;110.55;;;;;;;18.24;85.01;96777.91;5061574;27;103002;-66
2023/10/19 05:50:54;;;;;;;107.72;101.95;;;;;;;18.28;85.46;96773.78;5078947;27;103918;-66
2023/10/19 05:53:23;;;;;;;119.43;113.70;;;;;;;18.84;82.69;96776.84;5082180;27;103714;-66
2023/10/19 05:55:51;;;;;;;105.93;100.35;;;;;;;18.78;83.06;96775.84;5061178;27;104165;-66
2023/10/19 05:58:22;;;;;;;113.23;107.93;;;;;;;18.73;83.63;96783.66;5079657;27;102587;-66
2023/10/19 06:00:53;;;;;;;121.38;115.35;;;;;;;18.16;86.02;96778.91;5059658;27;104094;-66
2023/10/19 06:03:21;;;;;;;123.78;118.22;;;;;;;18.71;83.47;96775.03;5051109;27;104641;-67
2023/10/19 06:05:48;;;;;;;135.73;129.75;;;;;;;19.47;80.04;96775.28;5072692;27;103244;-66
2023/10/19 06:08:16;;;;;;;159.77;152.80;;;;;;;19.73;78.26;96785.88;5078216;27;102717;-66
2023/10/19 06:10:51;;;;;;;163.75;157.13;;;;;;;20.00;77.41;96787.38;5081190;27;103977;-66
2023/10/19 06:13:19;;;;;;;155.75;148.90;;;;;;;19.18;80.64;96786.47;5082117;27;103221;-66
2023/10/19 06:15:49;;;;;;;159.60;153.07;;;;;;;19.72;77.82;96788.75;5080859;27;103379;-66
2023/10/19 06:18:17;;;;;;;156.90;150.68;;;;;;;20.09;77.39;96786.09;5061194;27;103221;-66
2023/10/19 06:20:48;;;;;;;185.27;177.97;;;;;;;20.36;75.11;96783.22;5080322;27;103895;-66
2023/10/19 06:23:16;;;;;;;161.73;154.82;;;;;;;19.11;80.61;96789.97;5080794;27;104159;-67
2023/10/19 06:25:45;;;;;;;156.57;150.17;;;;;;;19.80;77.59;96785.81;5077713;27;103527;-60
2023/10/19 06:28:13;;;;;;;174.18;167.48;;;;;;;20.42;76.26;96782.34;5077827;27;102711;-61
2023/10/19 06:30:42;;;;;;;161.17;154.73;;;;;;;20.42;75.18;96790.41;5060582;27;103953;-60
2023/10/19 06:33:11;;;;;;;161.00;154.52;;;;;;;20.47;75.58;96782.50;5077060;27;103209;-61
2023/10/19 06:35:40;;;;;;;161.68;155.30;;;;;;;20.53;75.05;96787.00;5081678;27;103388;-61
2023/10/19 06:38:09;;;;;;;172.32;165.30;;;;;;;20.69;74.15;96781.91;5081005;27;103877;-61
2023/10/19 06:40:37;;;;;;;173.93;167.23;;;;;;;20.82;74.36;96778.31;5073503;27;103678;-67
2023/10/19 06:43:05;;;;;;;167.50;160.50;;;;;;;20.66;73.45;96786.91;5074982;27;103766;-68
2023/10/19 06:45:34;;;;;;;164.77;158.57;;;;;;;20.85;74.37;96791.28;5054538;27;103428;-69
2023/10/19 06:48:03;;;;;;;145.50;139.35;;;;;;;20.60;74.38;96787.78;5071857;27;102772;-69
2023/10/19 06:50:33;;;;;;;160.25;153.82;;;;;;;20.92;74.13;96775.94;5043364;27;104347;-62
2023/10/19 06:53:05;;;;;;;131.35;125.82;;;;;;;20.46;75.72;96792.44;5073312;27;103686;-62
2023/10/19 06:55:33;;;;;;;143.77;137.83;;;;;;;20.83;74.89;96783.44;5074650;27;103403;-62
2023/10/19 06:58:01;;;;;;;132.10;126.43;;;;;;;20.42;76.49;96783.19;5073432;27;102973;-62
2023/10/19 07:00:29;;;;;;;135.52;129.55;;;;;;;20.22;78.77;96782.47;5072632;27;102843;-67
2023/10/19 07:03:00;;;;;;;151.43;145.02;;;;;;;20.67;75.86;96769.75;5057497;27;104651;-68
2023/10/19 07:05:30;;;;;;;150.90;144.17;;;;;;;19.85;82.92;96778.78;5074154;27;103984;-68
2023/10/19 07:08:01;;;;;;;146.47;140.07;;;;;;;20.12;80.58;96768.75;5058503;27;102764;-69
2023/10/19 07:10:30;;;;;;;156.63;150.32;;;;;;;20.78;78.53;96774.41;5055181;27;103757;-69
2023/10/19 07:12:58;;;;;;;149.27;143.25;;;;;;;21.06;75.97;96777.44;5072052;27;104781;-69
2023/10/19 07:15:28;;;;;;;146.80;140.60;;;;;;;20.89;75.65;96773.69;5075100;27;103187;-68
2023/10/19 07:17:56;;;;;;;131.85;126.32;;;;;;;20.60;77.90;96769.03;5075704;27;102692;-68
2023/10/19 07:20:28;;;;;;;148.63;142.77;;;;;;;21.34;75.39;96768.88;5070322;27;104491;-69
2023/10/19 07:23:00;;;;;;;159.60;153.40;;;;;;;21.36;73.56;96767.63;5070331;27;104113;-69
2023/10/19 07:25:31;;;;;;;157.18;151.13;;;;;;;21.64;73.94;96785.06;5055548;27;104309;-63
2023/10/19 07:28:00;;;;;;;149.57;143.73;;;;;;;21.70;72.82;96770.72;5057688;27;102803;-62
2023/10/19 07:30:28;;;;;;;161.60;155.00;;;;;;;21.85;71.88;96771.13;5071903;27;104484;-62
2023/10/19 07:32:58;;;;;;;157.50;151.37;;;;;;;21.92;71.88;96766.53;5076807;27;104018;-62
2023/10/19 07:35:27;;;;;;;170.57;164.05;;;;;;;22.10;71.54;96773.72;5060738;27;104190;-61
2023/10/19 07:37:56;;;;;;;159.18;152.85;;;;;;;21.84;70.92;96777.56;5081264;27;102714;-68
2023/10/19 07:40:25;;;;;;;163.73;157.27;;;;;;;21.89;71.89;96775.06;5075319;27;103547;-68
2023/10/19 07:42:54;;;;;;;149.25;143.00;;;;;;;21.63;72.13;96767.31;5059013;27;103195;-68
2023/10/19 07:45:25;;;;;;;130.40;124.88;;;;;;;21.49;73.92;96763.13;5078338;27;103250;-68
2023/10/19 07:47:53;;;;;;;157.63;150.77;;;;;;;21.66;72.23;96756.94;5072582;27;102760;-68
2023/10/19 07:50:22;;;;;;;145.00;138.87;;;;;;;21.61;71.95;96764.03;5075514;27;104089;-68
2023/10/19 07:52:52;;;;;;;146.13;140.00;;;;;;;21.72;72.10;96765.94;5071463;27;104155;-68
2023/10/19 07:55:22;;;;;;;177.43;170.10;;;;;;;21.92;70.38;96751.22;5073734;27;103906;-68
2023/10/19 07:57:51;;;;;;;139.10;132.70;;;;;;;20.71;76.05;96752.19;5073765;27;102675;-69
2023/10/19 08:00:21;;;;;;;111.10;106.00;;;;;;;21.37;75.70;96747.78;5078962;27;104012;-69
2023/10/19 08:02:49;;;;;;;165.87;159.30;;;;;;;22.16;72.75;96746.72;5078327;27;104227;-68
2023/10/19 08:05:19;;;;;;;153.40;147.07;;;;;;;22.11;72.32;96748.47;5053814;27;103229;-69
2023/10/19 08:07:47;;;;;;;143.35;136.85;;;;;;;21.51;73.40;96758.34;5074681;27;102773;-69
2023/10/19 08:10:19;;;;;;;179.30;172.18;;;;;;;22.29;72.04;96751.06;5074564;27;102721;-69
2023/10/19 08:12:48;;;;;;;211.67;203.57;;;;;;;22.85;68.99;96746.00;5054005;27;104191;-69
2023/10/19 08:15:17;;;;;;;213.60;205.17;;;;;;;22.91;68.50;96746.94;5076395;27;103273;-69
2023/10/19 08:17:50;;;;;;;210.38;201.88;;;;;;;22.92;69.11;96740.50;5074055;27;102762;-69
2023/10/19 08:20:23;;;;;;;260.45;250.90;;;;;;;23.44;67.97;96747.59;5063805;27;104170;-69
2023/10/19 08:22:54;;;;;;;251.18;241.77;;;;;;;23.58;66.18;96746.25;5073637;27;103935;-69
2023/10/19 08:25:27;;;;;;;257.30;247.50;;;;;;;23.40;66.46;96741.06;5072612;27;104494;-69
2023/10/19 08:28:03;;;;;;;238.18;229.10;;;;;;;23.53;66.87;96743.47;5073095;27;102787;-69
2023/10/19 08:30:33;;;;;;;259.52;249.48;;;;;;;23.82;66.31;96749.72;5074316;27;103668;-68
2023/10/19 08:33:03;;;;;;;261.23;251.65;;;;;;;24.20;64.80;96751.78;5073992;27;104108;-69
2023/10/19 08:35:35;;;;;;;226.15;217.38;;;;;;;23.52;67.85;96744.53;5073873;27;103230;-62
2023/10/19 08:38:11;;;;;;;199.40;191.55;;;;;;;23.34;67.86;96741.97;5078125;27;102635;-63
2023/10/19 08:40:39;;;;;;;232.88;223.95;;;;;;;23.43;67.42;96743.28;5055611;27;102844;-68
2023/10/19 08:43:13;;;;;;;261.63;251.85;;;;;;;24.08;65.65;96741.00;5075337;27;103794;-68
2023/10/19 08:45:43;;;;;;;238.23;229.38;;;;;;;23.62;67.27;96741.22;5076098;27;103193;-68
2023/10/19 08:48:15;;;;;;;254.15;244.65;;;;;;;23.89;65.96;96741.50;5074552;27;102742;-62
2023/10/19 08:50:43;;;;;;;292.90;282.40;;;;;;;24.78;64.28;96736.03;5081182;27;102674;-62
2023/10/19 08:53:13;;;;;;;318.60;307.02;;;;;;;25.22;61.68;96736.13;5073188;27;103744;-63
2023/10/19 08:55:41;;;;;;;299.95;289.02;;;;;;;24.59;63.84;96729.22;5058827;27;104207;-62
2023/10/19 08:58:19;;;;;;;253.03;243.77;;;;;;;24.07;65.63;96734.00;5071510;27;103025;-63
2023/10/19 09:00:48;;;;;;;322.40;310.83;;;;;;;25.47;63.27;96720.25;5050286;27;104561;-63
2023/10/19 09:03:18;;;;;;;263.75;254.13;;;;;;;24.77;64.87;96728.97;5074853;27;103339;-61
2023/10/19 09:05:47;;;;;;;296.10;285.48;;;;;;;24.92;64.16;96719.50;5068451;27;103372;-62
2023/10/19 09:08:22;;;;;;;284.42;274.33;;;;;;;24.90;63.12;96721.63;5069838;27;102695;-62
2023/10/19 09:10:53;;;;;;;269.25;259.48;;;;;;;24.05;64.90;96721.81;5072903;27;103502;-62
2023/10/19 09:13:23;;;;;;;264.73;255.05;;;;;;;23.96;66.00;96716.00;5055817;27;103229;-61
2023/10/19 09:15:55;;;;;;;316.17;304.63;;;;;;;24.62;64.81;96715.22;5078702;27;103283;-62
2023/10/19 09:18:27;;;;;;;359.50;346.30;;;;;;;25.70;61.23;96716.47;5055370;27;103572;-61
2023/10/19 09:21:02;;;;;;;352.30;339.43;;;;;;;25.99;61.46;96711.63;5078986;27;104560;-61
2023/10/19 09:23:31;;;;;;;335.57;323.47;;;;;;;25.64;61.94;96720.19;5076115;27;103468;-61
2023/10/19 09:26:02;;;;;;;318.52;307.08;;;;;;;25.33;62.91;96717.09;5058634;27;104165;-62
2023/10/19 09:28:33;;;;;;;352.48;339.98;;;;;;;25.47;63.05;96714.00;5074016;27;102544;-62
2023/10/19 09:31:03;;;;;;;324.20;312.83;;;;;;;25.88;63.44;96716.13;5075842;27;104232;-61
2023/10/19 09:33:34;;;;;;;358.60;345.42;;;;;;;25.83;61.05;96708.75;5073694;27;104022;-61
2023/10/19 09:36:12;;;;;;;379.37;365.53;;;;;;;25.90;60.61;96701.28;5073914;27;103207;-60
2023/10/19 09:38:44;;;;;;;400.17;385.33;;;;;;;26.30;60.76;96691.94;5072542;27;103249;-60
2023/10/19 09:41:14;;;;;;;425.48;409.48;;;;;;;26.75;59.78;96686.84;5075926;27;102717;-61
2023/10/19 09:43:44;;;;;;;461.83;444.37;;;;;;;27.03;58.62;96685.72;5076691;27;104248;-60
2023/10/19 09:46:22;;;;;;;378.23;364.63;;;;;;;25.89;61.42;96682.59;5073329;27;103166;-61
2023/10/19 09:48:51;;;;;;;474.00;456.23;;;;;;;26.58;58.83;96678.09;5077716;27;102653;-61
2023/10/19 09:51:20;;;;;;;452.45;435.73;;;;;;;26.61;59.56;96685.66;5059798;27;102933;-60
2023/10/19 09:53:53;;;;;;;458.95;441.67;;;;;;;26.54;59.27;96679.66;5076268;27;103889;-61
2023/10/19 09:56:26;;;;;;;421.25;405.77;;;;;;;26.45;60.10;96675.81;5081894;27;103242;-61
2023/10/19 09:58:58;;;;;;;408.20;393.40;;;;;;;26.02;60.09;96675.97;5080809;27;102896;-61
2023/10/19 10:01:28;;;;;;;494.95;475.58;;;;;;;26.47;58.90;96679.09;5063300;27;103385;-66
2023/10/19 10:04:02;;;;;;;453.95;436.58;;;;;;;25.52;61.02;96678.94;5078436;27;103476;-66
2023/10/19 10:06:31;;;;;;;444.60;427.48;;;;;;;25.72;61.66;96677.28;5082740;27;103296;-66
2023/10/19 10:09:03;;;;;;;475.70;456.83;;;;;;;25.80;61.10;96678.69;5080454;27;103207;-65
2023/10/19 10:11:31;;;;;;;463.95;445.90;;;;;;;25.29;62.67;96688.91;5080426;27;103069;-66
2023/10/19 10:13:59;;;;;;;426.97;410.33;;;;;;;25.14;63.26;96682.53;5060020;27;104377;-67
2023/10/19 10:16:29;;;;;;;458.08;440.17;;;;;;;24.95;63.76;96678.50;5080931;27;103247;-66
2023/10/19 10:19:00;;;;;;;436.23;419.30;;;;;;;24.99;63.54;96683.13;5079548;27;103114;-67
2023/10/19 10:21:30;;;;;;;435.35;418.40;;;;;;;24.92;63.33;96671.72;5064037;27;104337;-67
2023/10/19 10:24:00;;;;;;;438.58;421.92;;;;;;;25.26;62.63;96672.41;5082581;27;104143;-67
2023/10/19 10:26:36;;;;;;;438.35;421.35;;;;;;;25.10;62.98;96667.88;5081036;27;103240;-67
2023/10/19 10:29:19;;;;;;;453.20;436.03;;;;;;;25.40;61.74;96662.84;5081576;27;102981;-63
2023/10/19 10:31:49;;;;;;;426.35;410.20;;;;;;;24.57;64.75;96669.28;5060505;27;103940;-61
2023/10/19 10:34:45;;;;;;;455.43;437.60;;;;;;;25.58;61.74;96665.25;5066616;27;103478;-67
2023/10/19 10:37:15;;;;;;;534.80;513.28;;;;;;;26.26;59.01;96669.16;5068607;27;103210;-66
2023/10/19 10:39:44;;;;;;;499.25;479.67;;;;;;;25.79;60.78;96666.28;5072157;27;104279;-66
2023/10/19 10:42:14;;;;;;;480.13;461.42;;;;;;;25.73;60.63;96660.00;5081849;27;104334;-66
2023/10/19 10:44:45;;;;;;;531.70;510.27;;;;;;;26.36;58.46;96655.69;5081275;27;104175;-66
2023/10/19 10:47:17;;;;;;;506.00;485.95;;;;;;;25.70;60.06;96652.41;5064547;27;104074;-66
2023/10/19 10:49:51;;;;;;;496.70;476.97;;;;;;;25.87;60.16;96658.50;5064774;27;102841;-67
2023/10/19 10:52:28;;;;;;;465.75;447.65;;;;;;;25.08;62.48;96656.50;5081162;27;102879;-66
2023/10/19 10:54:57;;;;;;;490.00;470.80;;;;;;;25.55;60.59;96671.16;5082598;27;104051;-67
2023/10/19 10:57:32;;;;;;;510.65;490.52;;;;;;;25.57;59.87;96663.59;5083047;27;103198;-67
2023/10/19 11:00:09;;;;;;;489.15;469.88;;;;;;;25.64;60.85;96664.22;5080883;27;102928;-66
2023/10/19 11:02:42;;;;;;;443.77;426.70;;;;;;;25.12;62.54;96665.75;5081009;27;103562;-67
2023/10/19 11:05:13;;;;;;;447.33;430.35;;;;;;;24.82;63.41;96670.72;5082558;27;103934;-67
2023/10/19 11:07:42;;;;;;;465.98;448.02;;;;;;;24.97;63.09;96673.66;5064603;27;102686;-61
2023/10/19 11:10:13;;;;;;;470.63;452.40;;;;;;;25.21;61.54;96675.03;5079625;27;102824;-62
2023/10/19 11:12:41;;;;;;;491.13;471.80;;;;;;;25.97;60.59;96676.72;5081881;27;103855;-61